• Join FlightAware (Why Join?)
  • Login
  • US Flag 
05:24AM EST


 

Airport Tracker/Info


-or-


 

Live Flight TrackerFlight Track Log ✈ VH-ZMB ✈ 29-Aug-2013 ✈ YOOD - YBAS / ASP

Flight Track Log - Related Links

Times and Time Zones

All times are in EDT time to prevent confusion due to time zone crossing. See the VH-ZMB flight status page for this flight to view local times or setup timezone preferences in your user account.

Time Position Orientation Groundspeed Altitude Reporting Facility
EDT Latitude Longitude Course Direction KTS MPH feet Rate Location/Type
05:08AM -27.3858 135.3812 360° North 10,000  Level Aus ATC (Calculated)
05:08AM -27.3858 135.3812 192° South 10,000  Level Aus ATC (Calculated)
05:08AM -27.4027 135.3772 339° North 10,000  Level Aus ATC (Calculated)
05:10AM -27.3576 135.3578 339° North  Level FlightAware Approximate
05:11AM -27.3206 135.3419 339° North  Level FlightAware Approximate
05:11AM -27.2297 135.3134 339° North 10,000  Level Aus ATC (Calculated)
05:13AM -27.1847 135.2939 339° North  Level FlightAware Approximate
05:14AM -27.1477 135.2779 339° North  Level FlightAware Approximate
05:15AM -27.1107 135.2619 339° North  Level FlightAware Approximate
05:16AM -27.0737 135.2459 339° North  Level FlightAware Approximate
05:17AM -27.0367 135.2299 339° North  Level FlightAware Approximate
05:18AM -26.9997 135.2139 339° North  Level FlightAware Approximate
05:19AM -26.9627 135.1979 339° North  Level FlightAware Approximate
05:20AM -26.9256 135.1820 339° North  Level FlightAware Approximate
05:20AM -26.9308 135.1752 349° North 10,000  Level Aus ATC (Calculated)
05:21AM -26.8886 135.1660 339° North  Level FlightAware Approximate
05:22AM -26.8861 135.1562 339° North  Level FlightAware Approximate
05:23AM -26.8467 135.1394 339° North  Level FlightAware Approximate
05:24AM -26.8073 135.1227 339° North  Level FlightAware Approximate
05:25AM -26.7679 135.1059 339° North  Level FlightAware Approximate
05:26AM -26.7285 135.0892 339° North  Level FlightAware Approximate
05:27AM -26.6891 135.0724 339° North  Level FlightAware Approximate
05:28AM -26.6497 135.0557 339° North  Level FlightAware Approximate
05:29AM -26.6102 135.0390 339° North  Level FlightAware Approximate
05:30AM -26.5708 135.0223 339° North  Level FlightAware Approximate
05:31AM -26.5314 135.0056 339° North  Level FlightAware Approximate
05:32AM -26.4919 134.9890 339° North  Level FlightAware Approximate
05:33AM -26.4525 134.9723 339° North  Level FlightAware Approximate
05:34AM -26.4131 134.9556 339° North  Level FlightAware Approximate
05:35AM -26.3737 134.9390 339° North  Level FlightAware Approximate
05:36AM -26.3342 134.9224 339° North  Level FlightAware Approximate
05:37AM -26.2948 134.9058 339° North  Level FlightAware Approximate
05:38AM -26.2553 134.8892 339° North  Level FlightAware Approximate
05:38AM -26.3011 134.9084 342° North 10,000  Level Aus ATC (Calculated)
05:39AM -26.2139 134.8773 171° South 10,000  Level Aus ATC (Calculated)
05:40AM -26.2367 134.8813 339° North  Level FlightAware Approximate
05:41AM -26.1574 134.8533 339° North  Level FlightAware Approximate
05:42AM -26.1181 134.8366 339° North  Level FlightAware Approximate
05:43AM -26.0787 134.8198 339° North  Level FlightAware Approximate
05:44AM -26.0393 134.8031 339° North  Level FlightAware Approximate
05:45AM -25.9999 134.7864 339° North  Level FlightAware Approximate
05:45AM -25.9860 134.7761 347° North 10,000  Level Aus ATC (Calculated)
05:46AM -25.9605 134.7698 339° North  Level FlightAware Approximate
05:47AM -25.9347 134.7547 339° North  Level FlightAware Approximate
05:47AM -25.9011 134.7446 339° North 10,000  Level Aus ATC (Calculated)
05:49AM -25.8301 134.7146 339° North  Level FlightAware Approximate
05:50AM -25.7907 134.6980 339° North  Level FlightAware Approximate
05:51AM -25.7513 134.6814 339° North  Level FlightAware Approximate
05:52AM -25.7119 134.6648 339° North  Level FlightAware Approximate
05:53AM -25.6725 134.6482 339° North  Level FlightAware Approximate
05:54AM -25.6331 134.6316 339° North  Level FlightAware Approximate
05:54AM -25.6663 134.6456 339° North 10,000  Level Aus ATC (Calculated)
05:55AM -25.5937 134.6150 339° North  Level FlightAware Approximate
05:56AM -25.6105 134.6221 339° North  Level FlightAware Approximate
05:57AM -25.5711 134.6055 339° North  Level FlightAware Approximate
05:58AM -25.5317 134.5889 339° North  Level FlightAware Approximate
05:59AM -25.4922 134.5724 339° North  Level FlightAware Approximate
06:00AM -25.4528 134.5559 339° North  Level FlightAware Approximate
06:01AM -25.4134 134.5393 339° North  Level FlightAware Approximate
06:02AM -25.3740 134.5228 339° North  Level FlightAware Approximate
06:03AM -25.3345 134.5063 339° North  Level FlightAware Approximate
06:04AM -25.2951 134.4898 339° North  Level FlightAware Approximate
06:05AM -25.2557 134.4733 339° North  Level FlightAware Approximate
06:06AM -25.2162 134.4568 339° North  Level FlightAware Approximate
06:06AM -25.1966 134.4486 339° North 10,000  Level Aus ATC (Calculated)
06:08AM -25.1230 134.4179 339° North  Level FlightAware Approximate
06:09AM -25.0836 134.4015 339° North  Level FlightAware Approximate
06:10AM -25.0441 134.3851 339° North  Level FlightAware Approximate
06:11AM -25.0047 134.3686 339° North  Level FlightAware Approximate
06:12AM -25.0441 134.3851 159° South  Level FlightAware Approximate
06:13AM -25.0047 134.3686 339° North  Level FlightAware Approximate
06:14AM -25.0081 134.3703 340° North  Level FlightAware Approximate
06:15AM -24.9686 134.3541 340° North  Level FlightAware Approximate
06:16AM -24.9291 134.3380 340° North  Level FlightAware Approximate
06:17AM -24.8895 134.3218 340° North  Level FlightAware Approximate
06:17AM -24.8063 134.2879 160° South 2,500  Level Aus ATC (Calculated)
06:18AM -24.8500 134.3057 340° North  Level FlightAware Approximate
06:19AM -24.7358 134.2591 340° North  Level FlightAware Approximate
06:20AM -24.6962 134.2431 340° North  Level FlightAware Approximate
06:21AM -24.6567 134.2270 340° North  Level FlightAware Approximate
06:21AM -24.6504 134.2244 360° North 2,500  Level Aus ATC (Calculated)
06:21AM -24.6504 134.2244 340° North 2,500  Level Aus ATC (Calculated)
06:23AM -24.5911 134.2003 340° North  Level FlightAware Approximate
06:24AM -24.5516 134.1843 340° North  Level FlightAware Approximate
06:25AM -24.5120 134.1682 340° North  Level FlightAware Approximate
06:26AM -24.4725 134.1522 340° North  Level FlightAware Approximate
06:27AM -24.4329 134.1362 340° North  Level FlightAware Approximate
06:28AM -24.3934 134.1201 340° North  Level FlightAware Approximate
06:29AM -24.3538 134.1041 340° North  Level FlightAware Approximate
06:29AM -24.3386 134.0980 340° North 2,500  Level Aus ATC (Calculated)
06:31AM -24.2767 134.0730 340° North  Level FlightAware Approximate
06:32AM -24.2371 134.0570 340° North  Level FlightAware Approximate
06:33AM -24.1975 134.0410 340° North  Level FlightAware Approximate
06:34AM -24.1580 134.0250 340° North  Level FlightAware Approximate
06:34AM -24.1047 134.0036 160° South 2,500  Level Aus ATC (Calculated)
06:35AM -24.1184 134.0091 340° North  Level FlightAware Approximate
06:36AM -24.0605 133.9858 340° North  Level FlightAware Approximate
06:36AM -24.0267 133.9722 340° North 2,500  Level Aus ATC (Calculated)
06:38AM -23.9482 133.9406 340° North  Level FlightAware Approximate
06:39AM -23.9087 133.9247 340° North  Level FlightAware Approximate